Tiempo atmosférico en la estación meteorológica de Abenójar, Ciudad Real (718 m.)



Fecha
DESCASC
Temp. máxima en grados centígrados (hora)
DESCASC
Temp. mínima en grados centígrados (hora)
DESCASC
Temp. media en grados centígrados
DESCASC
Racha de viento máxima en m/sg (hora)
DESCASC
Velocidad máxima media en intervalos de 10 minutos(hora)
DESCASC
Precipitaciones diarias en mm
DESCASC
Precipitaciones de 00:00 a 06:00 en mm
DESCASC
Precipitaciones de 06:00 a 12:00 en mm
DESCASC
Precipitaciones de 12:00 a 18:00 en mm
DESCASC
Precipitaciones de 18:00 a 24:00 en mm
DESCASC
05-12-2019 10.7 (14:20) 5.4 (08:50) 8 12.5 (14:00) 7.5 (14:00) 0.2 0 0 0.2 0
04-12-2019 9.4 (12:40) 2 (06:00) 5.7 8.61 (00:10) 6.11 (00:10) 1 0 0 0.8 0.2
03-12-2019 9 (13:20) 5.7 (00:00) 7.3 13.33 (04:00) 8.61 (04:00) 0 0 0 0 0
02-12-2019 9.1 (16:00) 5.5 (00:00) 7.3 15.56 (13:20) 7.78 (13:10) 1.6 0.8 0.4 0.4 0
01-12-2019 9.9 (14:20) 5.7 (00:00) 7.8 7.5 (11:50) 4.44 (12:30) 8.8 0.2 0 8.2 0.4
30-11-2019 13.2 (14:30) 8.1 (00:00) 10.7 10.83 (23:40) 6.39 (23:40) 0.6 0 0 0 0.6
29-11-2019 12.7 (16:10) 9 (00:00) 10.8 5.83 (13:50) 3.61 (12:10) 0 0 0 0 0
28-11-2019 11.4 (16:40) 6.6 (00:00) 9 7.22 (10:50) 3.89 (13:30) 0 0 0 0 0
27-11-2019 12.5 (16:30) 6.5 (00:00) 9.5 11.67 (00:20) 7.22 (00:20) 0.8 0.6 0.2 0 0
26-11-2019 13.7 (16:30) 9.8 (00:00) 11.8 10 (23:50) 6.39 (23:59) 0.4 0 0 0 0.4
25-11-2019 14.1 (15:30) 8.2 (00:00) 11.2 11.11 (15:40) 6.67 (15:00) 2.4 0.2 1.8 0.4 0
24-11-2019 9.9 (15:40) 3.1 (00:00) 6.5 9.17 (16:30) 5.83 (13:10) 0 0 0 0 0
23-11-2019 10.3 (15:10) 4.2 (00:00) 7.3 18.33 (02:20) 10.28 (02:30) 1.8 1.8 0 0 0
22-11-2019 12.3 (16:20) 8.3 (00:00) 10.3 16.11 (22:30) 10.28 (22:30) 18 1 2 14.2 0.8
21-11-2019 9.5 (12:30) 6.7 (00:00) 8.1 7.22 (12:40) 4.44 (12:50) 6 0.6 0.2 2.4 2.8
20-11-2019 7.7 (11:30) 2 (00:00) 4.8 6.39 (14:10) 4.17 (14:10) 10.4 0 0 9.2 1.2
19-11-2019 10 (14:20) 1.3 (00:00) 5.6 5.56 (15:20) 3.33 (14:30) 0 0 0 0 0
18-11-2019 11.5 (15:10) 2.9 (00:00) 7.2 8.61 (00:40) 5.28 (00:10) 0 0 0 0 0
17-11-2019 9.6 (23:20) -0.8 (-00:0) 4.4 10.28 (21:40) 6.39 (23:40) 15.8 0 0.6 0.6 14.6
16-11-2019 9.6 (15:40) -2.3 (-00:0) 3.7 9.17 (16:10) 5.28 (16:10) 0 0 0 0 0
15-11-2019 -- (--) -- (--) -- -- (--) -- (--) -- -- 0 0 0
14-11-2019 10.4 (00:00) 5.9 (00:00) 8.1 15 (17:00) 9.17 (14:50) 3.4 0 3.4 0 0
13-11-2019 16.3 (15:40) 9.6 (00:00) 12.9 13.06 (03:30) 8.33 (03:30) 0.4 0.2 0.2 0 0
12-11-2019 12.8 (14:30) 3.6 (00:00) 8.2 11.11 (23:20) 6.67 (23:40) 0 0 0 0 0
11-11-2019 9.8 (16:40) 2.9 (04:30) 6.4 7.78 (13:10) 5.28 (13:00) 0 0 0 0 0
10-11-2019 9.8 (00:20) 4.2 (00:00) 7 11.94 (01:00) 7.5 (01:00) 0 0 0 0 0
09-11-2019 11.3 (14:10) 0.4 (00:00) 5.9 9.44 (14:50) 6.11 (14:00) 1.2 0 0 0 1.2
08-11-2019 11 (15:30) 2.6 (00:00) 6.8 9.44 (10:30) 6.39 (09:30) 0 0 0 0 0

Gráficas

Temp. máximas Temp. mínimas Temp. medias Precipitaciones Rachas de viento máximas Velocidades máximas media en intervalos de 10 minutos

Datos horarios

Fecha y hora oficial Temperatura (ºC) Velocidad del viento (km/h) Dirección del viento Racha (km/h) Dirección de racha Precipitación (mm) Presión (hPa) Tendencia (hPa) Humedad (%)
2019-12-07 23:00:00 4.3 3 Nordeste 7 Este 0 -- -- 100
2019-12-07 22:00:00 4.8 2 Nordeste 8 Este 0 -- -- 100
2019-12-07 21:00:00 5 5 Sudeste 9 Sudeste 0 -- -- 100
2019-12-07 20:00:00 5.1 6 Sudeste 8 Sudeste 0 -- -- 100
2019-12-07 19:00:00 5.8 4 Sur 6 Este 0 -- -- 99
2019-12-07 18:00:00 6.2 3 Nordeste 10 Sudeste 0 -- -- 98
2019-12-07 17:00:00 6.8 3 Nordeste 10 Nordeste 0 -- -- 97
2019-12-07 16:00:00 6.9 4 Este 11 Nordeste 0 -- -- 100
2019-12-07 15:00:00 6.4 5 Nordeste 9 Sudeste 0 -- -- 100
2019-12-07 14:00:00 6.3 5 Este 17 Sudeste 0 -- -- 100
2019-12-07 13:00:00 6 11 Este 15 Sudeste 0 -- -- 100
2019-12-07 12:00:00 5.8 8 Este 15 Este 0 -- -- 100
2019-12-07 11:00:00 5.4 10 Este 15 Este 0 -- -- 100
2019-12-07 10:00:00 5.1 13 Este 21 Este 0 -- -- 100
2019-12-07 09:00:00 4.6 7 Este 24 Este 0 -- -- 100
2019-12-07 08:00:00 4.1 9 Este 26 Nordeste 0 -- -- 100
2019-12-07 07:00:00 4.2 19 Nordeste 32 Nordeste 0 -- -- 100
2019-12-07 06:00:00 5.3 18 Este 30 Este 0 -- -- 99
2019-12-07 05:00:00 5.3 16 Este 26 Este 0 -- -- 99
2019-12-07 04:00:00 5.9 17 Este 25 Este 0 -- -- 99
2019-12-07 03:00:00 5.2 0 Calma 8 Noroeste 0 -- -- 98
2019-12-07 02:00:00 6.1 5 Nordeste 25 Nordeste 0 -- -- 98
2019-12-07 01:00:00 6.1 16 Nordeste 28 Este 0 -- -- 97
2019-12-07 00:00:00 6.8 19 Este 30 Nordeste 0 -- -- 95
2019-12-06 23:00:00 7 17 Nordeste 23 Nordeste 0 -- -- 92
2019-12-06 22:00:00 7.5 18 Nordeste 26 Nordeste 0 -- -- 92
2019-12-06 21:00:00 8 16 Este 21 Este 0 -- -- 90
2019-12-06 20:00:00 8 12 Este 30 Este 0 -- -- 89
2019-12-06 19:00:00 9.1 14 Este 26 Este 0 -- -- 87
2019-12-06 18:00:00 9.7 12 Este 19 Este 0 -- -- 84
2019-12-06 17:00:00 11.2 13 Este 25 Este 0 -- -- 81
2019-12-06 16:00:00 11.5 14 Este 26 Este 0 -- -- 80
2019-12-06 15:00:00 11.1 15 Nordeste 25 Este 0 -- -- 81
2019-12-06 14:00:00 9.9 15 Nordeste 27 Este 0 -- -- 86
2019-12-06 13:00:00 7.7 20 Este 30 Este 0 -- -- 94
2019-12-06 12:00:00 7.3 18 Este 34 Este 0 -- -- 96
2019-12-06 11:00:00 6.1 22 Este 33 Nordeste 0 -- -- 100
2019-12-06 10:00:00 5.7 22 Este 39 Este 0 -- -- 99
2019-12-06 09:00:00 5.9 24 Este 33 Nordeste 0 -- -- 98
2019-12-06 08:00:00 6 22 Este 38 Nordeste 0 -- -- 98
2019-12-06 07:00:00 6.5 22 Este 37 Este 0 -- -- 98
2019-12-06 06:00:00 6.3 26 Nordeste 38 Este 0 -- -- 100
2019-12-06 05:00:00 6.5 24 Nordeste 33 Nordeste 0 -- -- 98
2019-12-06 04:00:00 6.9 21 Nordeste 32 Este 0 -- -- 97
2019-12-06 03:00:00 6.7 19 Nordeste 33 Nordeste 0 -- -- 98
2019-12-06 02:00:00 7 21 Nordeste 34 Este 0 -- -- 98
2019-12-06 01:00:00 6.9 20 Nordeste 30 Este 0 -- -- 98
2019-12-06 00:00:00 7 19 Nordeste 28 Este 0 -- -- 97
2019-12-05 23:00:00 7.1 14 Nordeste 28 Este 0 -- -- 96
2019-12-05 22:00:00 7.5 15 Este 26 Este 0 -- -- 94
2019-12-05 21:00:00 7.9 19 Este 33 Este 0 -- -- 93
2019-12-05 20:00:00 8.2 18 Este 32 Este 0 -- -- 90
2019-12-05 19:00:00 7.7 10 Nordeste 18 Este 0 -- -- 92
2019-12-05 18:00:00 9 12 Nordeste 31 Nordeste 0 -- -- 86
2019-12-05 17:00:00 10 19 Nordeste 33 Nordeste 0 -- -- 81
2019-12-05 16:00:00 10.2 18 Este 35 Nordeste 0 -- -- 80
2019-12-05 15:00:00 10.3 17 Nordeste 39 Nordeste 0.2 -- -- 78
2019-12-05 14:00:00 10.1 27 Nordeste 45 Este 0 -- -- 78
2019-12-05 13:00:00 9.5 19 Este 35 Este 0 -- -- 77
2019-12-05 12:00:00 9.9 21 Nordeste 34 Este 0 -- -- 77
2019-12-05 11:00:00 8 7 Nordeste 14 Nordeste 0 -- -- 87
2019-12-05 10:00:00 7 8 Nordeste 17 Nordeste 0 -- -- 87
2019-12-05 09:00:00 5.5 10 Nordeste 18 Nordeste 0 -- -- 95
2019-12-05 08:00:00 6 11 Nordeste 20 Nordeste 0 -- -- 93
2019-12-05 07:00:00 6.7 12 Nordeste 18 Nordeste 0 -- -- 91
2019-12-05 06:00:00 6.9 10 Nordeste 17 Nordeste 0 -- -- 93
2019-12-05 05:00:00 6.9 8 Nordeste 15 Nordeste 0 -- -- 93
2019-12-05 04:00:00 7.1 7 Este 12 Nordeste 0 -- -- 93
2019-12-05 03:00:00 6.6 3 Nordeste 7 Nordeste 0 -- -- 98
2019-12-05 02:00:00 6.3 0 Calma 9 Nordeste 0 -- -- 96
2019-12-05 01:00:00 7.2 6 Este 10 Este 0 -- -- 95
2019-12-05 00:00:00 7.3 5 Este 9 Este 0 -- -- 95
2019-12-04 23:00:00 7.4 3 Este 6 Este 0 -- -- 96
2019-12-04 22:00:00 7.6 0 Calma 4 Sudoeste 0 -- -- 98
2019-12-04 21:00:00 7.6 0 Calma 5 Noroeste 0 -- -- 98
2019-12-04 20:00:00 7.6 3 Norte 10 Noroeste 0 -- -- 98
2019-12-04 19:00:00 7.5 7 Noroeste 9 Noroeste 0.2 -- -- 98
2019-12-04 18:00:00 7.6 8 Noroeste 18 Noroeste 0.4 -- -- 96
2019-12-04 17:00:00 7.9 9 Noroeste 17 Noroeste 0.4 -- -- 94
2019-12-04 16:00:00 8.8 10 Noroeste 17 Noroeste 0 -- -- 89
2019-12-04 15:00:00 9.1 9 Noroeste 15 Oeste 0 -- -- 86
2019-12-04 14:00:00 8.9 10 Oeste 15 Oeste 0 -- -- 85
2019-12-04 13:00:00 9.4 6 Oeste 12 Noroeste 0 -- -- 80
2019-12-04 12:00:00 8.1 3 Oeste 6 Norte 0 -- -- 86
2019-12-04 11:00:00 6.3 2 Sudoeste 7 Norte 0 -- -- 92
2019-12-04 10:00:00 4.9 0 Calma 3 Este 0 -- -- 98
2019-12-04 09:00:00 4.1 3 Nordeste 7 Nordeste 0 -- -- 100
2019-12-04 08:00:00 2.7 3 Nordeste 6 Nordeste 0 -- -- 98
2019-12-04 07:00:00 2.6 0 Calma 5 Sudeste 0 -- -- 99
2019-12-04 06:00:00 2 0 Calma 7 Nordeste 0 -- -- 97
2019-12-04 05:00:00 3 7 Nordeste 11 Nordeste 0 -- -- 96
2019-12-04 04:00:00 3.7 4 Norte 21 Este 0 -- -- 93
2019-12-04 03:00:00 3.9 11 Nordeste 22 Nordeste 0 -- -- 92
2019-12-04 02:00:00 4.5 16 Este 22 Este 0 -- -- 90
2019-12-04 01:00:00 5 17 Este 31 Este 0 -- -- 86
2019-12-04 00:00:00 5.7 22 Este 35 Nordeste 0 -- -- 84
2019-12-03 23:00:00 6.2 22 Este 35 Este 0 -- -- 87
2019-12-03 22:00:00 6.6 18 Este 33 Este -- -- -- 87
2019-12-03 21:00:00 7 18 Este 33 Este 0 -- -- 88
2019-12-03 20:00:00 7.4 20 Este 31 Nordeste 0 -- -- 87
2019-12-03 19:00:00 7.6 15 Este 30 Este 0 -- -- 90
2019-12-03 18:00:00 7.7 18 Este 32 Nordeste 0 -- -- 90
2019-12-03 17:00:00 8.1 20 Nordeste 36 Nordeste 0 -- -- 88
2019-12-03 16:00:00 8.7 22 Nordeste 37 Nordeste 0 -- -- 85
2019-12-03 15:00:00 8.6 19 Nordeste 36 Nordeste 0 -- -- 85
2019-12-03 14:00:00 8.5 21 Nordeste 41 Nordeste 0 -- -- 86
2019-12-03 13:00:00 8.8 28 Nordeste 43 Nordeste 0 -- -- 84
2019-12-03 12:00:00 7.6 23 Este 42 Nordeste 0 -- -- 87
2019-12-03 11:00:00 8 20 Este 35 Este 0 -- -- 87
2019-12-03 10:00:00 7.4 20 Este 37 Este 0 -- -- 87
2019-12-03 09:00:00 7 21 Este 37 Nordeste 0 -- -- 89
2019-12-03 08:00:00 6.8 22 Este 38 Este 0 -- -- 89
2019-12-03 07:00:00 6.4 18 Nordeste 37 Nordeste 0 -- -- 90
2019-12-03 06:00:00 6.5 25 Este 37 Este 0 -- -- 89
2019-12-03 05:00:00 6.3 22 Nordeste 44 Este 0 -- -- 88
2019-12-03 04:00:00 6.7 31 Este 48 Este 0 -- -- 86
2019-12-03 03:00:00 6.8 27 Este 42 Este 0 -- -- 85
2019-12-03 02:00:00 6.8 23 Este 42 Este 0 -- -- 85
2019-12-03 01:00:00 7.1 24 Este 44 Este 0 -- -- 86
2019-12-03 00:00:00 7.6 21 Este 40 Nordeste 0 -- -- 88
2019-12-02 23:00:00 7.8 23 Este 38 Este 0 -- -- 89
2019-12-02 22:00:00 8.1 23 Este 42 Este 0 -- -- 89
2019-12-02 21:00:00 8.5 23 Este 49 Este 0 -- -- 86
2019-12-02 20:00:00 8.6 24 Este 41 Este 0 -- -- 85
2019-12-02 19:00:00 8.6 24 Este 45 Este 0 -- -- 85
2019-12-02 18:00:00 8.7 21 Este 36 Este 0 -- -- 88
2019-12-02 17:00:00 8.7 24 Nordeste 44 Este 0.2 -- -- 89
2019-12-02 16:00:00 9.1 26 Este 42 Este 0 -- -- 87
2019-12-02 15:00:00 8.4 27 Este 43 Este 0.2 -- -- 88
2019-12-02 14:00:00 7.6 21 Este 56 Este 0 -- -- 93
2019-12-02 13:00:00 8.5 26 Este 44 Nordeste 0 -- -- 89
2019-12-02 12:00:00 7.8 26 Este 46 Nordeste 0 -- -- 92
2019-12-02 11:00:00 6.7 24 Este 39 Nordeste 0.2 -- -- 96
2019-12-02 10:00:00 6.6 21 Nordeste 41 Nordeste 0.2 -- -- 96
2019-12-02 09:00:00 7 23 Este 37 Este 0 -- -- 96
2019-12-02 08:00:00 6.9 18 Este 32 Este 0 -- -- 97
2019-12-02 07:00:00 6.5 21 Este 38 Este 0 -- -- 97
2019-12-02 06:00:00 6.7 19 Este 34 Este 0.6 -- -- 97
2019-12-02 05:00:00 6.6 17 Este 28 Este 0.2 -- -- 99
2019-12-02 04:00:00 6.1 13 Nordeste 26 Nordeste 0 -- -- 99
2019-12-02 03:00:00 5.9 16 Nordeste 26 Nordeste 0 -- -- 98
2019-12-02 02:00:00 5.7 13 Nordeste 25 Nordeste 0 -- -- 98
2019-12-02 01:00:00 5.5 17 Nordeste 23 Nordeste 0 -- -- 98
2019-12-02 00:00:00 5.7 11 Nordeste 17 Nordeste 0 -- -- 95
2019-12-01 23:00:00 6.2 12 Nordeste 17 Nordeste 0 -- -- 93
2019-12-01 22:00:00 6 12 Nordeste 17 Nordeste 0 -- -- 94
2019-12-01 21:00:00 5.7 10 Este 14 Este 0 -- -- 93
2019-12-01 20:00:00 5.8 10 Este 13 Este 0 -- -- 96
2019-12-01 19:00:00 6.7 6 Sudeste 9 Sudeste 0.4 -- -- 94
2019-12-01 18:00:00 7 4 Sudeste 12 Sur 1.4 -- -- 96
2019-12-01 17:00:00 7.1 6 Sudoeste 18 Oeste 6.4 -- -- 96
2019-12-01 16:00:00 9.2 9 Oeste 27 Sudoeste 0.4 -- -- 93
2019-12-01 15:00:00 9.9 13 Sur 25 Sur 0 -- -- 89
2019-12-01 14:00:00 9.5 14 Sur 27 Sur 0 -- -- 88
2019-12-01 13:00:00 8.6 10 Sur 27 Sudoeste 0 -- -- 93
2019-12-01 12:00:00 8.7 13 Sur 27 Sudoeste 0 -- -- 91
2019-12-01 11:00:00 7.7 12 Sudoeste 22 Sudoeste 0 -- -- 95
2019-12-01 10:00:00 7 8 Sur 15 Sur 0 -- -- 94
2019-12-01 09:00:00 6.7 6 Sudeste 13 Sur 0 -- -- 99
2019-12-01 08:00:00 6.4 4 Sur 6 Sur 0 -- -- 99
2019-12-01 07:00:00 5.9 2 Sudoeste 8 Sur 0 -- -- 98
2019-12-01 06:00:00 5.8 0 Calma 12 Oeste 0 -- -- 98
2019-12-01 05:00:00 6.2 5 Oeste 20 Oeste 0 -- -- 96
2019-12-01 04:00:00 7.3 12 Oeste 19 Oeste 0 -- -- 97
2019-12-01 03:00:00 7.8 11 Sudoeste 23 Sudoeste 0 -- -- 97
2019-12-01 02:00:00 8.2 10 Oeste 21 Sudoeste 0.2 -- -- 97
2019-12-01 01:00:00 8.4 9 Oeste 26 Oeste 0 -- -- 96
2019-12-01 00:00:00 9.1 20 Oeste 39 Noroeste 0.6 -- -- 98
2019-11-30 23:00:00 10.6 9 Sudoeste 29 Sudoeste 0 -- -- 98
2019-11-30 22:00:00 11.3 14 Sudoeste 29 Sur 0 -- -- 90
2019-11-30 21:00:00 11.4 10 Sudoeste 26 Oeste 0 -- -- 87
2019-11-30 20:00:00 11.6 8 Sudoeste 21 Oeste 0 -- -- 85
2019-11-30 19:00:00 12 10 Oeste 18 Oeste 0 -- -- 87
2019-11-30 18:00:00 12.4 12 Oeste 19 Oeste 0 -- -- 87
2019-11-30 17:00:00 12.8 12 Sudoeste 26 Sudoeste 0 -- -- 82
2019-11-30 16:00:00 13 15 Sudoeste 28 Oeste 0 -- -- 79
2019-11-30 15:00:00 13 17 Oeste 27 Oeste 0 -- -- 79
2019-11-30 14:00:00 13 15 Sudoeste 22 Oeste 0 -- -- 82
2019-11-30 13:00:00 12.5 13 Oeste 22 Oeste 0 -- -- 87
2019-11-30 12:00:00 12.2 8 Sudoeste 16 Oeste 0 -- -- 92
2019-11-30 11:00:00 10.7 9 Oeste 15 Oeste 0 -- -- 96
2019-11-30 10:00:00 10.3 6 Sudoeste 13 Oeste 0 -- -- 99
2019-11-30 09:00:00 9.8 2 Sudoeste 4 Sudoeste 0 -- -- 99
2019-11-30 08:00:00 9.3 0 Calma 4 Sur 0 -- -- 100
2019-11-30 07:00:00 8.4 0 Calma 5 Sudeste 0 -- -- 96
2019-11-30 06:00:00 10 0 Calma 9 Oeste 0 -- -- 98
2019-11-30 05:00:00 9.1 3 Oeste 5 Oeste 0 -- -- 99
2019-11-30 04:00:00 8.8 0 Calma 5 Este 0 -- -- 94
2019-11-30 03:00:00 10.6 3 Sudeste 4 Este 0 -- -- 94
2019-11-30 02:00:00 11.2 0 Calma 3 Nordeste 0 -- -- 94
2019-11-30 01:00:00 11.3 0 Calma 3 Oeste 0 -- -- 93
2019-11-30 00:00:00 11.5 0 Calma 4 Norte 0 -- -- 92
2019-11-29 23:00:00 11.4 2 Nordeste 5 Oeste 0 -- -- 92
2019-11-29 22:00:00 11.5 2 Oeste 6 Sudoeste 0 -- -- 92
2019-11-29 21:00:00 11.6 0 Calma 6 Oeste 0 -- -- 92
2019-11-29 20:00:00 11.8 0 Calma 5 Oeste 0 -- -- 91
2019-11-29 19:00:00 12 0 Calma 4 Sudoeste 0 -- -- 91
2019-11-29 18:00:00 12.5 2 Sur 6 Sur 0 -- -- 89
2019-11-29 17:00:00 12.6 3 Sur 8 Sur 0 -- -- 88
2019-11-29 16:00:00 12.6 4 Sudoeste 13 Noroeste 0 -- -- 86
2019-11-29 15:00:00 12.3 7 Oeste 15 Oeste 0 -- -- 88
2019-11-29 14:00:00 12.2 10 Oeste 21 Oeste 0 -- -- 90
2019-11-29 13:00:00 12.5 6 Sudoeste 21 Oeste 0 -- -- 88
2019-11-29 12:00:00 11.9 12 Sudoeste 19 Oeste 0 -- -- 90
2019-11-29 11:00:00 10.9 5 Sudoeste 10 Sudoeste 0 -- -- 95
2019-11-29 10:00:00 10.1 6 Oeste 12 Oeste 0 -- -- 97
2019-11-29 09:00:00 9.4 3 Oeste 5 Oeste 0 -- -- 97
2019-11-29 08:00:00 9.8 5 Sudoeste 16 Oeste 0 -- -- 96
2019-11-29 07:00:00 10.1 8 Sudoeste 16 Sudoeste 0 -- -- 96
2019-11-29 06:00:00 10 4 Sudoeste 15 Oeste 0 -- -- 94
2019-11-29 05:00:00 10 8 Sudoeste 17 Sudoeste 0 -- -- 93
2019-11-29 04:00:00 10 2 Sudoeste 12 Sudoeste 0 -- -- 94
2019-11-29 03:00:00 9.9 8 Sudoeste 14 Sudoeste 0 -- -- 93
2019-11-29 02:00:00 9.5 0 Calma 11 Oeste 0 -- -- 95
2019-11-29 01:00:00 9.2 7 Oeste 13 Sudoeste 0 -- -- 95
2019-11-29 00:00:00 9.3 8 Sudoeste 17 Sudoeste 0 -- -- 94
2019-11-28 23:00:00 9.4 7 Oeste 11 Oeste 0 -- -- 94
2019-11-28 22:00:00 8.8 4 Oeste 6 Oeste 0 -- -- 95
2019-11-28 21:00:00 9.4 0 Calma 8 Sudoeste 0 -- -- 91
2019-11-28 20:00:00 10.6 3 Sudoeste 10 Sudoeste 0 -- -- 90
2019-11-28 19:00:00 10.6 7 Sudoeste 15 Sudoeste 0 -- -- 90
2019-11-28 18:00:00 11.1 7 Sudoeste 13 Sudoeste 0 -- -- 88
2019-11-28 17:00:00 11.4 8 Sudoeste 18 Sudoeste 0 -- -- 87
2019-11-28 16:00:00 11.2 8 Sudoeste 21 Sudoeste 0 -- -- 89
2019-11-28 15:00:00 10.9 11 Sudoeste 21 Sudoeste 0 -- -- 91
2019-11-28 14:00:00 10.4 12 Sudoeste 24 Sudoeste 0 -- -- 89
2019-11-28 13:00:00 9.9 14 Oeste 23 Sudoeste 0 -- -- 93
2019-11-28 12:00:00 9.9 11 Sudoeste 25 Sudoeste 0 -- -- 91
2019-11-28 11:00:00 9.9 14 Sudoeste 26 Sudoeste 0 -- -- 90
2019-11-28 10:00:00 8.8 4 Sudoeste 16 Oeste 0 -- -- 98
2019-11-28 09:00:00 8.3 11 Oeste 17 Sudoeste 0 -- -- 98
2019-11-28 08:00:00 8.2 10 Sudoeste 19 Oeste 0 -- -- 98
2019-11-28 07:00:00 7.9 9 Oeste 15 Oeste 0 -- -- 98
2019-11-28 06:00:00 7.5 6 Oeste 12 Oeste 0 -- -- 98
2019-11-28 05:00:00 7.5 6 Sudoeste 15 Sudoeste 0 -- -- 97
2019-11-28 04:00:00 7.3 9 Sudoeste 19 Sudoeste 0 -- -- 97
2019-11-28 03:00:00 7.2 11 Sudoeste 17 Sudoeste 0 -- -- 97
2019-11-28 02:00:00 6.8 2 Norte 13 Oeste 0 -- -- 95
2019-11-28 01:00:00 8.3 8 Oeste 13 Oeste 0 -- -- 92
2019-11-28 00:00:00 7.4 2 Oeste 10 Oeste 0 -- -- 96
2019-11-27 23:00:00 7 5 Oeste 11 Sudoeste 0 -- -- 94
2019-11-27 22:00:00 7.4 4 Sudoeste 13 Sudoeste 0 -- -- 92
2019-11-27 21:00:00 8.5 5 Sudoeste 13 Sudoeste 0 -- -- 89
2019-11-27 20:00:00 8.4 6 Oeste 14 Oeste 0 -- -- 89
2019-11-27 19:00:00 9.5 6 Oeste 21 Oeste 0 -- -- 85
2019-11-27 18:00:00 10.8 11 Oeste 31 Oeste 0 -- -- 82
2019-11-27 17:00:00 12.4 12 Sudoeste 32 Oeste 0 -- -- 81
2019-11-27 16:00:00 12.2 18 Oeste 30 Oeste 0 -- -- 80
2019-11-27 15:00:00 11.1 18 Oeste 34 Oeste 0 -- -- 86
2019-11-27 14:00:00 11.7 19 Oeste 39 Oeste 0 -- -- 84
2019-11-27 06:00:00 -- -- -- -- -- -- -- -- --
2019-11-27 05:00:00 10.3 15 Sudoeste 29 Sudoeste 0.2 -- -- 98
2019-11-27 04:00:00 10.7 13 Sudoeste 26 Sudoeste 0 -- -- 96
2019-11-27 03:00:00 10.7 15 Sudoeste 32 Oeste 0 -- -- 95
2019-11-27 02:00:00 11.3 15 Oeste 37 Oeste 0 -- -- 94
2019-11-27 01:00:00 11.8 21 Sudoeste 42 Oeste 0 -- -- 96
2019-11-27 00:00:00 12.3 23 Oeste 36 Oeste 0 -- -- 95
2019-11-26 23:00:00 12 18 Sudoeste 35 Sudoeste 0.2 -- -- 99
2019-11-26 22:00:00 11.8 13 Sudoeste 26 Sudoeste 0.2 -- -- 98
2019-11-26 21:00:00 11.8 15 Sudoeste 32 Sudoeste 0 -- -- 96
2019-11-26 20:00:00 12.5 18 Sudoeste 32 Sudoeste 0 -- -- 91
2019-11-26 19:00:00 12.7 12 Sudoeste 28 Oeste 0 -- -- 91
2019-11-26 18:00:00 12.8 16 Sudoeste 36 Oeste 0 -- -- 92
2019-11-26 17:00:00 13.5 10 Sudoeste 28 Sudoeste 0 -- -- 91
2019-11-26 16:00:00 13.3 12 Sudoeste 23 Sur 0 -- -- 94
2019-11-26 15:00:00 13.1 10 Sudoeste 26 Sur 0 -- -- 96
2019-11-26 14:00:00 12.9 10 Sudoeste 22 Sudoeste 0 -- -- 97
2019-11-26 13:00:00 12.7 10 Sudoeste 25 Sudoeste 0 -- -- 96
2019-11-26 12:00:00 12.7 13 Sudoeste 27 Oeste 0 -- -- 94
2019-11-26 11:00:00 12.2 14 Sudoeste 25 Sudoeste 0 -- -- 93
2019-11-26 10:00:00 11 5 Sudoeste 14 Sudoeste 0 -- -- 97
2019-11-26 09:00:00 10.5 5 Sudoeste 9 Sudoeste 0 -- -- 98
2019-11-26 08:00:00 10.5 4 Sudoeste 10 Sudoeste 0 -- -- 99
2019-11-26 07:00:00 10.3 5 Sudoeste 13 Sudoeste 0 -- -- 99
2019-11-26 06:00:00 10.2 6 Sudoeste 13 Sudoeste 0 -- -- 99
2019-11-26 05:00:00 10.2 8 Sudoeste 14 Oeste 0 -- -- 99
2019-11-26 04:00:00 10.2 10 Oeste 15 Oeste 0 -- -- 98
2019-11-26 03:00:00 10.5 6 Sudoeste 13 Oeste 0 -- -- 96
2019-11-26 02:00:00 11.1 9 Oeste 18 Oeste 0 -- -- 94
2019-11-26 01:00:00 10.7 8 Sudoeste 17 Sudoeste 0 -- -- 96
2019-11-26 00:00:00 10.6 4 Sudoeste 14 Oeste 0 -- -- 96
2019-11-25 23:00:00 10.9 6 Sudoeste 16 Sudoeste 0 -- -- 95
2019-11-25 22:00:00 11.2 10 Sudoeste 18 Oeste 0 -- -- 96
2019-11-25 21:00:00 10.7 12 Oeste 18 Sudoeste 0 -- -- 95
2019-11-25 20:00:00 10.9 7 Sudoeste 18 Oeste 0 -- -- 93
2019-11-25 19:00:00 11.4 12 Oeste 22 Oeste 0 -- -- 92
2019-11-25 18:00:00 12.3 12 Oeste 27 Oeste 0 -- -- 89
2019-11-25 17:00:00 13.2 19 Oeste 36 Oeste 0 -- -- 86
2019-11-25 16:00:00 13.8 21 Oeste 40 Oeste 0 -- -- 84
2019-11-25 15:00:00 13.2 24 Oeste 36 Oeste 0.2 -- -- 98
2019-11-25 14:00:00 13.1 18 Sudoeste 30 Oeste 0.2 -- -- 99
2019-11-25 13:00:00 12.5 16 Sudoeste 30 Sudoeste 0 -- -- 99
2019-11-25 12:00:00 11.5 11 Sudoeste 20 Sudoeste 0 -- -- 100
2019-11-25 11:00:00 11.2 8 Sudoeste 23 Sudoeste 0.2 -- -- 100
2019-11-25 10:00:00 10.6 9 Sudoeste 19 Oeste 0 -- -- 100
2019-11-25 09:00:00 10 7 Sudoeste 13 Sudoeste 0.4 -- -- 100
2019-11-25 08:00:00 9.6 4 Sudoeste 9 Oeste 0.4 -- -- 99
2019-11-25 07:00:00 9.3 4 Sudoeste 19 Sudoeste 0.8 -- -- 99
2019-11-25 06:00:00 8.9 8 Sudoeste 17 Sudoeste 0.2 -- -- 99
2019-11-25 05:00:00 8.6 8 Sudoeste 21 Sudoeste 0 -- -- 98
2019-11-25 04:00:00 8.4 10 Sudoeste 23 Sudoeste 0 -- -- 97
2019-11-25 03:00:00 8.8 11 Sudoeste 24 Sudoeste 0 -- -- 92
2019-11-25 02:00:00 8.8 8 Sudoeste 17 Sudoeste 0 -- -- 90
2019-11-25 01:00:00 8.4 6 Sudoeste 15 Sudoeste 0 -- -- 90
2019-11-25 00:00:00 8.2 4 Sur 12 Sudoeste 0 -- -- 91
2019-11-24 23:00:00 8.6 5 Sudoeste 19 Sudoeste 0 -- -- 89
2019-11-24 22:00:00 8.4 9 Oeste 16 Sudoeste 0 -- -- 88
2019-11-24 21:00:00 8.5 13 Oeste 21 Sudoeste 0 -- -- 86
2019-11-24 20:00:00 8.2 12 Oeste 18 Oeste 0 -- -- 87
2019-11-24 19:00:00 8.6 13 Oeste 24 Oeste 0 -- -- 84
2019-11-24 18:00:00 8.6 13 Oeste 26 Oeste 0 -- -- 81
2019-11-24 17:00:00 9.3 15 Oeste 33 Oeste 0 -- -- 75
2019-11-24 16:00:00 9.6 13 Oeste 30 Oeste 0 -- -- 73
2019-11-24 15:00:00 9.7 18 Oeste 28 Oeste 0 -- -- 73
2019-11-24 14:00:00 9.5 19 Oeste 30 Oeste 0 -- -- 72
2019-11-24 13:00:00 8.5 18 Oeste 27 Oeste 0 -- -- 78
2019-11-24 12:00:00 7.4 16 Oeste 28 Oeste 0 -- -- 85
2019-11-24 11:00:00 5.9 9 Oeste 18 Oeste 0 -- -- 94
2019-11-24 10:00:00 5.1 11 Oeste 18 Oeste 0 -- -- 96
2019-11-24 09:00:00 4.8 10 Oeste 17 Oeste 0 -- -- 98
2019-11-24 08:00:00 4.2 8 Oeste 20 Oeste 0 -- -- 98
2019-11-24 07:00:00 4 6 Oeste 13 Oeste 0 -- -- 98
2019-11-24 06:00:00 3.9 6 Oeste 9 Oeste 0 -- -- 99
2019-11-24 05:00:00 3.3 4 Noroeste 14 Oeste 0 -- -- 97
2019-11-24 04:00:00 3.8 9 Oeste 19 Oeste 0 -- -- 95
2019-11-24 03:00:00 3.5 7 Oeste 13 Oeste 0 -- -- 95
2019-11-24 02:00:00 3.6 6 Oeste 15 Sudoeste 0 -- -- 94
2019-11-24 01:00:00 4.9 7 Sudoeste 17 Oeste 0 -- -- 90
2019-11-24 00:00:00 5.3 9 Oeste 18 Oeste 0 -- -- 89
2019-11-23 23:00:00 5.6 9 Oeste 21 Oeste 0 -- -- 87
2019-11-23 22:00:00 5.3 8 Oeste 14 Oeste 0 -- -- 87
2019-11-23 21:00:00 4.5 4 Oeste 10 Oeste 0 -- -- 90
2019-11-23 20:00:00 6.1 0 Calma 23 Oeste 0 -- -- 83
2019-11-23 19:00:00 8.4 17 Oeste 31 Oeste 0 -- -- 69
2019-11-23 18:00:00 9.1 19 Oeste 32 Oeste 0 -- -- 70
2019-11-23 17:00:00 9.8 24 Oeste 43 Oeste 0 -- -- 67
2019-11-23 16:00:00 10.2 23 Oeste 43 Oeste 0 -- -- 65
2019-11-23 15:00:00 9.9 23 Oeste 44 Oeste 0 -- -- 66
2019-11-23 14:00:00 9.7 24 Oeste 45 Oeste 0 -- -- 72
2019-11-23 13:00:00 9.4 27 Oeste 45 Oeste 0 -- -- 73
2019-11-23 12:00:00 8.3 26 Oeste 49 Oeste 0 -- -- 76
2019-11-23 11:00:00 7.5 32 Oeste 50 Oeste 0 -- -- 82
2019-11-23 10:00:00 7 34 Oeste 57 Oeste 0 -- -- 82
2019-11-23 09:00:00 6.9 25 Oeste 48 Oeste 0 -- -- 85
2019-11-23 08:00:00 6.6 26 Oeste 48 Oeste 0 -- -- 86
2019-11-23 07:00:00 6.9 22 Oeste 45 Oeste 0 -- -- 87
2019-11-23 06:00:00 6.8 22 Oeste 49 Oeste 0 -- -- 87
2019-11-23 05:00:00 7.3 28 Oeste 44 Oeste 0 -- -- 88
2019-11-23 04:00:00 7.7 24 Oeste 55 Oeste 0 -- -- 92
2019-11-23 03:00:00 8.1 30 Oeste 66 Oeste 0 -- -- 90
2019-11-23 02:00:00 8.2 30 Oeste 48 Oeste 1.6 -- -- 97
2019-11-23 01:00:00 8.6 21 Sudoeste 47 Sudoeste 0.2 -- -- 94
2019-11-23 00:00:00 8.9 31 Oeste 53 Oeste 0.2 -- -- 89
2019-11-22 23:00:00 8.6 22 Oeste 58 Oeste 0.4 -- -- 97
2019-11-22 22:00:00 9.8 28 Oeste 50 Oeste 0.2 -- -- 93
2019-11-22 21:00:00 10.4 17 Sudoeste 37 Oeste 0 -- -- 91
2019-11-22 20:00:00 10.5 21 Oeste 41 Oeste 0 -- -- 90
2019-11-22 19:00:00 10.9 27 Oeste 50 Oeste 0 -- -- 91
2019-11-22 18:00:00 11.5 27 Oeste 42 Oeste 0 -- -- 94
2019-11-22 17:00:00 12.3 21 Oeste 40 Sudoeste 1.8 -- -- 99
2019-11-22 16:00:00 12.2 22 Sudoeste 37 Sur 2 -- -- 98
2019-11-22 15:00:00 11.9 14 Sudoeste 44 Sudoeste 4.6 -- -- 98
2019-11-22 14:00:00 11.8 23 Sudoeste 42 Sur 1.2 -- -- 98
2019-11-22 13:00:00 10.9 17 Sur 33 Sur 4.6 -- -- 98
2019-11-22 12:00:00 10.7 15 Sur 30 Sur 1.8 -- -- 97
2019-11-22 11:00:00 10.6 13 Sudoeste 24 Sudoeste 0 -- -- 96
2019-11-22 10:00:00 9.8 10 Sur 20 Sudoeste 0.2 -- -- 97
2019-11-22 09:00:00 8.5 4 Sur 14 Sudoeste 0 -- -- 98
2019-11-22 08:00:00 8.5 8 Sudoeste 15 Sudoeste 0 -- -- 98
2019-11-22 07:00:00 8.5 9 Sudoeste 18 Sur 0 -- -- 98
2019-11-22 06:00:00 8.7 7 Sudoeste 17 Sur 0 -- -- 99
2019-11-22 05:00:00 8.8 10 Sudoeste 17 Sudoeste 0 -- -- 99
2019-11-22 04:00:00 8.7 7 Sudoeste 12 Sudoeste 0.2 -- -- 99
2019-11-22 03:00:00 8.5 5 Sudoeste 9 Sudoeste 0.4 -- -- 99
2019-11-22 02:00:00 8.4 3 Sur 6 Sur 0 -- -- 99
2019-11-22 01:00:00 8.3 5 Sur 8 Sur 0.4 -- -- 99
2019-11-22 00:00:00 8.3 4 Sudeste 7 Sudeste 0 -- -- 99
2019-11-21 23:00:00 8.4 0 Calma 3 Noroeste 2.4 -- -- 99
2019-11-21 22:00:00 8.1 2 Oeste 4 Sur 0.4 -- -- 100
2019-11-21 21:00:00 7.6 2 Sudeste 3 Sur 0 -- -- 99
2019-11-21 20:00:00 6.9 0 Calma 5 Sudeste 0 -- -- 98
2019-11-21 19:00:00 7.4 3 Norte 5 Oeste 0 -- -- 95
2019-11-21 18:00:00 9 4 Sudoeste 9 Oeste 0.2 -- -- 95
2019-11-21 17:00:00 9.3 5 Sudoeste 15 Sudoeste 0.4 -- -- 96
2019-11-21 16:00:00 9.4 7 Sudoeste 18 Sudoeste 0.2 -- -- 95
2019-11-21 15:00:00 9.3 10 Sudoeste 20 Sudoeste 0.2 -- -- 96
2019-11-21 14:00:00 9.2 9 Sudoeste 21 Oeste 0.8 -- -- 97
2019-11-21 13:00:00 9.1 12 Oeste 26 Sudoeste 0.6 -- -- 96
2019-11-21 12:00:00 9.1 10 Sudoeste 20 Sudoeste 0 -- -- 96
2019-11-21 11:00:00 8.9 10 Sudoeste 17 Sudoeste 0.2 -- -- 96
2019-11-21 10:00:00 8 4 Sudoeste 10 Sudoeste 0 -- -- 98
2019-11-21 09:00:00 7.6 4 Sudoeste 10 Sudoeste 0 -- -- 98
2019-11-21 08:00:00 7.3 6 Sudoeste 13 Sudoeste 0 -- -- 98
2019-11-21 07:00:00 7.3 7 Sudoeste 15 Oeste 0 -- -- 98
2019-11-21 06:00:00 7.3 6 Sudoeste 19 Sudoeste 0 -- -- 98
2019-11-21 05:00:00 7.3 9 Sudoeste 19 Sudoeste 0 -- -- 99
2019-11-21 04:00:00 7.1 4 Sudoeste 9 Sudoeste 0 -- -- 98
2019-11-21 03:00:00 6.9 5 Sudoeste 10 Sudoeste 0 -- -- 98
2019-11-21 02:00:00 6.8 6 Sudoeste 13 Sudoeste 0 -- -- 98
2019-11-21 01:00:00 6.7 5 Sudoeste 16 Sudoeste 0.6 -- -- 99
2019-11-21 00:00:00 6.7 8 Sudoeste 15 Sudoeste 0.4 -- -- 99
2019-11-20 23:00:00 6.7 8 Sudoeste 14 Sudoeste 0 -- -- 98
2019-11-20 22:00:00 6.6 5 Sudoeste 14 Sudoeste 0 -- -- 98
2019-11-20 21:00:00 6.7 9 Sudoeste 15 Sudoeste 0 -- -- 99
2019-11-20 20:00:00 6.2 6 Sudoeste 16 Sur 0 -- -- 98
2019-11-20 19:00:00 5.9 8 Sur 15 Sur 0.8 -- -- 97
2019-11-20 18:00:00 6 9 Sur 15 Sur 2 -- -- 98
2019-11-20 17:00:00 6 6 Sur 13 Sur 2.2 -- -- 97
2019-11-20 16:00:00 6.1 5 Sur 14 Sudoeste 3.2 -- -- 94
2019-11-20 15:00:00 6.3 6 Sur 23 Sur 1.2 -- -- 90
2019-11-20 14:00:00 6.8 9 Sur 22 Sur 0.2 -- -- 88
2019-11-20 13:00:00 7.1 9 Sudoeste 18 Sudoeste 0.4 -- -- 85
2019-11-20 12:00:00 7.7 5 Sudoeste 14 Sur 0 -- -- 81
2019-11-20 11:00:00 7.1 7 Sur 10 Sur 0 -- -- 78
2019-11-20 10:00:00 6.1 4 Sudeste 7 Sudeste 0 -- -- 86
2019-11-20 09:00:00 3.9 4 Este 9 Sudeste 0 -- -- 95
2019-11-20 08:00:00 2.4 4 Este 6 Este 0 -- -- 95
2019-11-20 07:00:00 2.8 5 Este 8 Sudeste 0 -- -- 96
2019-11-20 06:00:00 2.3 3 Nordeste 5 Nordeste 0 -- -- 97
2019-11-20 05:00:00 2.3 3 Este 6 Sudeste 0 -- -- 97
2019-11-20 04:00:00 2.2 2 Nordeste 3 Sudeste 0 -- -- 96
2019-11-20 03:00:00 2.8 2 Este 5 Nordeste 0 -- -- 94
2019-11-20 02:00:00 3.6 3 Este 5 Sudeste 0 -- -- 93
2019-11-20 01:00:00 3.9 3 Sudeste 4 Sudeste 0 -- -- 93
2019-11-20 00:00:00 4.6 3 Nordeste 6 Nordeste 0 -- -- 92
2019-11-19 23:00:00 4.7 3 Nordeste 4 Nordeste 0 -- -- 93
2019-11-19 22:00:00 5 0 Calma 4 Nordeste 0 -- -- 94
2019-11-19 21:00:00 5.2 4 Nordeste 4 Nordeste 0 -- -- 93
2019-11-19 20:00:00 5.6 2 Este 3 Sudeste 0 -- -- 91
2019-11-19 19:00:00 6.7 0 Calma 7 Oeste 0 -- -- 86
2019-11-19 18:00:00 8.2 6 Oeste 11 Oeste 0 -- -- 74
2019-11-19 17:00:00 8.8 7 Oeste 17 Sudoeste 0 -- -- 69
2019-11-19 16:00:00 9.2 10 Oeste 20 Sudoeste 0 -- -- 67
2019-11-19 15:00:00 9.7 10 Oeste 19 Oeste 0 -- -- 65
2019-11-19 14:00:00 9.8 9 Oeste 19 Oeste 0 -- -- 67
2019-11-19 13:00:00 9.5 5 Sudoeste 13 Oeste 0 -- -- 70
2019-11-19 12:00:00 7.7 3 Sudoeste 6 Sudoeste 0 -- -- 79
2019-11-19 11:00:00 6.3 2 Sudoeste 4 Sur 0 -- -- 85
2019-11-19 10:00:00 4.4 2 Oeste 10 Nordeste 0 -- -- 92
2019-11-19 09:00:00 2.5 6 Nordeste 12 Oeste 0 -- -- 95
2019-11-19 08:00:00 2.1 3 Este 11 Nordeste 0 -- -- 91
2019-11-19 07:00:00 1.7 4 Nordeste 9 Nordeste 0 -- -- 92
2019-11-19 06:00:00 1.9 3 Norte 8 Nordeste 0 -- -- 93
2019-11-19 05:00:00 1.7 3 Nordeste 8 Nordeste 0 -- -- 92
2019-11-19 04:00:00 2.1 4 Nordeste 8 Nordeste 0 -- -- 91
2019-11-19 03:00:00 1.9 3 Nordeste 8 Nordeste 0 -- -- 92
2019-11-19 02:00:00 2.7 4 Nordeste 9 Nordeste 0 -- -- 88
2019-11-19 01:00:00 3 4 Este 9 Nordeste 0 -- -- 86
2019-11-19 00:00:00 3.2 4 Nordeste 10 Nordeste 0 -- -- 89
2019-11-18 23:00:00 4.3 8 Nordeste 11 Nordeste 0 -- -- 83
2019-11-18 22:00:00 4.5 2 Nordeste 10 Noroeste 0 -- -- 89
2019-11-18 21:00:00 5.9 9 Noroeste 10 Noroeste 0 -- -- 87
2019-11-18 20:00:00 7.2 3 Noroeste 11 Noroeste 0 -- -- 83
2019-11-18 19:00:00 8.1 5 Noroeste 10 Norte 0 -- -- 78
2019-11-18 18:00:00 9.8 3 Noroeste 7 Noroeste 0 -- -- 67
2019-11-18 17:00:00 10.4 4 Noroeste 12 Norte 0 -- -- 57
2019-11-18 16:00:00 11.2 4 Oeste 21 Nordeste 0 -- -- 50
2019-11-18 15:00:00 11.4 8 Norte 23 Norte 0 -- -- 55
2019-11-18 14:00:00 10.9 9 Nordeste 25 Nordeste 0 -- -- 56
2019-11-18 13:00:00 10 10 Norte 18 Norte 0 -- -- 66
2019-11-18 12:00:00 8 8 Oeste 15 Oeste 0 -- -- 82
2019-11-18 11:00:00 6.2 5 Sudoeste 9 Sur 0 -- -- 95
2019-11-18 10:00:00 4.3 6 Oeste 13 Oeste 0 -- -- 99
2019-11-18 09:00:00 3.4 0 Calma 11 Noroeste 0 -- -- 99
2019-11-18 08:00:00 3.5 7 Noroeste 15 Noroeste 0 -- -- 94
2019-11-18 07:00:00 4.3 8 Norte 13 Norte 0 -- -- 97
2019-11-18 06:00:00 5.2 6 Norte 9 Norte 0 -- -- 96
2019-11-18 05:00:00 6.5 5 Norte 13 Noroeste 0 -- -- 98
2019-11-18 04:00:00 6.6 6 Noroeste 13 Noroeste 0 -- -- 98
2019-11-18 03:00:00 6.7 2 Sur 18 Norte 0 -- -- 97
2019-11-18 02:00:00 6.7 4 Norte 30 Noroeste 0 -- -- 96
2019-11-18 01:00:00 8.3 15 Noroeste 31 Noroeste 0 -- -- 96
2019-11-18 00:00:00 9.4 18 Noroeste 35 Oeste 0.6 -- -- 98
2019-11-17 23:00:00 9.2 14 Oeste 31 Noroeste 3 -- -- 99
2019-11-17 22:00:00 8.2 11 Noroeste 37 Noroeste 4.6 -- -- 99
2019-11-17 21:00:00 8.3 10 Sudoeste 23 Sudoeste 1.8 -- -- 99
2019-11-17 20:00:00 7.9 8 Sudoeste 18 Sudoeste 2.6 -- -- 99
2019-11-17 19:00:00 7.6 6 Sudoeste 18 Sudoeste 2 -- -- 99
2019-11-17 18:00:00 7.8 8 Sudoeste 19 Sudoeste 0 -- -- 98
2019-11-17 17:00:00 7.6 8 Sudoeste 21 Sudoeste 0 -- -- 99
2019-11-17 16:00:00 7.1 13 Sudoeste 24 Oeste 0.2 -- -- 99
2019-11-17 15:00:00 6.6 12 Oeste 22 Oeste 0 -- -- 98
2019-11-17 14:00:00 6.1 14 Sudoeste 23 Sudoeste 0.2 -- -- 98
2019-11-17 13:00:00 5.4 14 Oeste 21 Sudoeste 0.2 -- -- 98
2019-11-17 12:00:00 4.7 13 Sudoeste 23 Sudoeste 0.2 -- -- 98
2019-11-17 11:00:00 4 13 Sudoeste 20 Sudoeste 0 -- -- 99
2019-11-17 10:00:00 3.3 11 Sudoeste 21 Sudoeste 0.4 -- -- 99
2019-11-17 09:00:00 2.3 8 Oeste 14 Sudoeste 0 -- -- 97
2019-11-17 08:00:00 1.1 4 Oeste 8 Sudoeste 0 -- -- 97
2019-11-17 07:00:00 0 4 Sudoeste 8 Sudoeste 0 -- -- 96
2019-11-17 06:00:00 0.1 3 Sudoeste 11 Oeste 0 -- -- 94
2019-11-17 05:00:00 1.5 9 Oeste 16 Oeste 0 -- -- 92
2019-11-17 04:00:00 0.2 8 Sudoeste 12 Sudoeste 0 -- -- 95
2019-11-17 03:00:00 -0.6 0 Calma 6 Noroeste 0 -- -- 93
2019-11-17 02:00:00 0.6 4 Oeste 7 Noroeste 0 -- -- 90
2019-11-17 01:00:00 0.6 3 Oeste 9 Sudoeste 0 -- -- 90
2019-11-17 00:00:00 0.1 3 Noroeste 6 Noroeste 0 -- -- 92
2019-11-16 23:00:00 0.5 0 Calma 8 Sur 0 -- -- 89
2019-11-16 22:00:00 0.5 0 Calma 3 Norte 0 -- -- 90
2019-11-16 21:00:00 1.2 0 Calma 6 Oeste 0 -- -- 88
2019-11-16 20:00:00 2 3 Oeste 5 Sudoeste 0 -- -- 85
2019-11-16 19:00:00 5 3 Sur 20 Oeste 0 -- -- 69
2019-11-16 18:00:00 7.2 15 Oeste 27 Oeste 0 -- -- 57
2019-11-16 17:00:00 8.7 16 Oeste 33 Oeste 0 -- -- 52
2019-11-16 16:00:00 9.5 15 Oeste 28 Oeste 0 -- -- 51
2019-11-16 15:00:00 9.5 12 Oeste 24 Oeste 0 -- -- 50
2019-11-16 14:00:00 9.2 14 Oeste 25 Noroeste 0 -- -- 49
2019-11-16 13:00:00 8.1 7 Oeste 15 Oeste 0 -- -- 56
2019-11-16 12:00:00 6.4 9 Oeste 14 Oeste 0 -- -- 63
2019-11-16 11:00:00 4.1 6 Oeste 13 Oeste 0 -- -- 76
2019-11-16 10:00:00 -- -- -- -- -- -- -- -- --
2019-11-16 09:00:00 -- -- -- -- -- -- -- -- --
2019-11-16 08:00:00 -- -- -- -- -- -- -- -- --
2019-11-16 07:00:00 -- -- -- -- -- -- -- -- --
2019-11-16 06:00:00 -- -- -- -- -- -- -- -- --
2019-11-16 05:00:00 -- -- -- -- -- -- -- -- --
2019-11-16 04:00:00 -- -- -- -- -- -- -- -- --
2019-11-16 03:00:00 -- -- -- -- -- -- -- -- --
2019-11-16 02:00:00 -- -- -- -- -- -- -- -- --
2019-11-16 01:00:00 -- -- -- -- -- -- -- -- --
2019-11-16 00:00:00 -- -- -- -- -- -- -- -- --
2019-11-15 23:00:00 -- -- -- -- -- -- -- -- --
2019-11-15 22:00:00 -- -- -- -- -- -- -- -- --
2019-11-15 21:00:00 -- -- -- -- -- -- -- -- --
2019-11-15 20:00:00 -- -- -- -- -- -- -- -- --
2019-11-15 19:00:00 -- -- -- -- -- -- -- -- --
2019-11-15 18:00:00 -- -- -- -- -- -- -- -- --
2019-11-15 17:00:00 -- -- -- -- -- -- -- -- --
2019-11-15 16:00:00 -- -- -- -- -- -- -- -- --
2019-11-15 15:00:00 -- -- -- -- -- -- -- -- --
2019-11-15 14:00:00 -- -- -- -- -- -- -- -- --
2019-11-15 13:00:00 -- -- -- -- -- -- -- -- --
2019-11-15 12:00:00 -- -- -- -- -- -- -- -- --
2019-11-15 11:00:00 -- -- -- -- -- -- -- -- --
2019-11-15 10:00:00 -- -- -- -- -- -- -- -- --
2019-11-15 09:00:00 -- -- -- -- -- -- -- -- --
2019-11-15 08:00:00 -- -- -- -- -- -- -- -- --
2019-11-15 07:00:00 -- -- -- -- -- -- -- -- --
2019-11-15 06:00:00 -- -- -- -- -- -- -- -- --
2019-11-15 05:00:00 -- -- -- -- -- -- -- -- --
2019-11-15 04:00:00 -- -- -- -- -- -- -- -- --
2019-11-15 03:00:00 4 18 Oeste 39 Oeste 0 -- -- 85
2019-11-15 02:00:00 4.5 24 Oeste 37 Oeste 0 -- -- 83
2019-11-15 01:00:00 5.2 22 Oeste 52 Oeste 0 -- -- 81
2019-11-15 00:00:00 5.9 28 Oeste 48 Oeste 0 -- -- 79
2019-11-14 23:00:00 6.3 23 Oeste 41 Oeste 0 -- -- 78
2019-11-14 22:00:00 6.4 24 Oeste 48 Oeste 0 -- -- 80
2019-11-14 21:00:00 6.9 27 Oeste 46 Oeste 0 -- -- 74
2019-11-14 20:00:00 7.1 28 Oeste 47 Oeste 0 -- -- 73
2019-11-14 19:00:00 7.4 25 Oeste 50 Oeste 0 -- -- 72
2019-11-14 18:00:00 7.3 23 Oeste 51 Oeste 0 -- -- 67
2019-11-14 17:00:00 7.8 30 Oeste 54 Oeste 0 -- -- 65
2019-11-14 16:00:00 8.3 28 Oeste 53 Oeste 0 -- -- 67
2019-11-14 15:00:00 8.8 32 Oeste 51 Oeste 0 -- -- 67
2019-11-14 14:00:00 8.7 25 Oeste 54 Oeste 0 -- -- 80
2019-11-14 13:00:00 7.4 24 Oeste 40 Oeste 0 -- -- 90
2019-11-14 12:00:00 6.5 19 Oeste 46 Noroeste 1.2 -- -- 93
2019-11-14 11:00:00 7.6 20 Oeste 42 Oeste 0.6 -- -- 95
2019-11-14 10:00:00 7.8 26 Oeste 41 Oeste 1.2 -- -- 97
2019-11-14 09:00:00 7.5 20 Sudoeste 41 Oeste 0.4 -- -- 97
2019-11-14 08:00:00 7.8 22 Sudoeste 38 Oeste 0 -- -- 90
2019-11-14 07:00:00 7.8 19 Oeste 43 Oeste 0 -- -- 89
2019-11-14 06:00:00 7 17 Sudoeste 39 Oeste 0 -- -- 90
2019-11-14 05:00:00 7.1 28 Oeste 47 Oeste 0 -- -- 88
2019-11-14 04:00:00 7.6 31 Oeste 46 Oeste 0 -- -- 85
2019-11-14 03:00:00 8.4 21 Oeste 44 Oeste 0 -- -- 87
2019-11-14 02:00:00 9.1 18 Oeste 42 Oeste 0 -- -- 89
2019-11-14 01:00:00 9.3 27 Oeste 41 Oeste 0 -- -- 89
2019-11-14 00:00:00 10.4 24 Oeste 39 Sudoeste 0 -- -- 86
2019-11-13 23:00:00 11.1 22 Oeste 37 Oeste 0 -- -- 85
2019-11-13 22:00:00 11.7 21 Oeste 37 Oeste 0 -- -- 82
2019-11-13 21:00:00 12.3 18 Oeste 29 Oeste 0 -- -- 80
2019-11-13 20:00:00 12.9 15 Oeste 32 Oeste 0 -- -- 79
2019-11-13 19:00:00 13.2 12 Sudoeste 22 Sudoeste 0 -- -- 75
2019-11-13 18:00:00 14.7 14 Sudoeste 32 Oeste 0 -- -- 68
2019-11-13 17:00:00 15.4 17 Oeste 32 Oeste 0 -- -- 66
2019-11-13 16:00:00 15.3 14 Oeste 32 Oeste 0 -- -- 66
2019-11-13 15:00:00 15.7 18 Oeste 33 Oeste 0 -- -- 66
2019-11-13 14:00:00 15.2 17 Oeste 36 Oeste 0 -- -- 74
2019-11-13 13:00:00 14.1 21 Oeste 37 Sudoeste 0 -- -- 77
2019-11-13 12:00:00 13.2 24 Oeste 44 Oeste 0 -- -- 85
2019-11-13 11:00:00 12.3 26 Oeste 43 Oeste 0 -- -- 90
2019-11-13 10:00:00 11.4 22 Oeste 39 Oeste 0 -- -- 97
2019-11-13 09:00:00 10.8 16 Oeste 36 Oeste 0 -- -- 99
2019-11-13 08:00:00 10.4 22 Oeste 39 Oeste 0.2 -- -- 99
2019-11-13 07:00:00 10.2 21 Oeste 37 Oeste 0 -- -- 98
2019-11-13 06:00:00 10.2 20 Oeste 45 Sudoeste 0 -- -- 95
2019-11-13 05:00:00 10 23 Oeste 43 Oeste 0.2 -- -- 94
2019-11-13 04:00:00 10.1 23 Oeste 47 Oeste 0 -- -- 92
2019-11-13 03:00:00 9.9 24 Oeste 39 Oeste 0 -- -- 92
2019-11-13 02:00:00 9.9 18 Oeste 35 Oeste 0 -- -- 92
2019-11-13 01:00:00 9.7 17 Oeste 32 Oeste 0 -- -- 89
2019-11-13 00:00:00 9.6 16 Sudoeste 40 Oeste 0 -- -- 84
2019-11-12 23:00:00 9 16 Oeste 24 Oeste 0 -- -- 78
2019-11-12 22:00:00 8 8 Sudoeste 13 Oeste 0 -- -- 76
2019-11-12 21:00:00 6.4 4 Sudoeste 9 Oeste 0 -- -- 84
2019-11-12 20:00:00 6.7 0 Calma 9 Sudoeste 0 -- -- 85
2019-11-12 19:00:00 8.4 3 Oeste 18 Oeste 0 -- -- 77
2019-11-12 18:00:00 10.1 12 Oeste 24 Oeste 0 -- -- 70
2019-11-12 17:00:00 11.7 14 Oeste 24 Oeste 0 -- -- 63
2019-11-12 16:00:00 11.6 9 Oeste 24 Oeste 0 -- -- 63
2019-11-12 15:00:00 11.8 16 Oeste 25 Oeste 0 -- -- 67
2019-11-12 14:00:00 12.3 11 Oeste 19 Oeste 0 -- -- 61
2019-11-12 13:00:00 11.6 5 Oeste 13 Oeste 0 -- -- 58
2019-11-12 12:00:00 10.2 4 Sudoeste 11 Oeste 0 -- -- 74
2019-11-12 11:00:00 7.2 4 Oeste 7 Sudoeste 0 -- -- 97
2019-11-12 10:00:00 5.9 2 Sudoeste 5 Noroeste 0 -- -- 100
2019-11-12 09:00:00 4.7 2 Sur 6 Sudoeste 0 -- -- 100
2019-11-12 08:00:00 3.6 0 Calma 8 Este 0 -- -- 99
2019-11-12 07:00:00 4.3 5 Este 12 Este 0 -- -- 99
2019-11-12 06:00:00 4.9 3 Sudeste 5 Nordeste 0 -- -- 99
2019-11-12 05:00:00 5.9 3 Sudeste 8 Noroeste 0 -- -- 99
2019-11-12 04:00:00 6.3 0 Calma 6 Sudeste 0 -- -- 99
2019-11-12 03:00:00 6.6 0 Calma 11 Nordeste 0 -- -- 99
2019-11-12 02:00:00 7.2 4 Nordeste 7 Norte 0 -- -- 98
2019-11-12 01:00:00 8 0 Calma 8 Noroeste 0 -- -- 99
2019-11-12 00:00:00 8.3 3 Noroeste 10 Oeste 0 -- -- 99
2019-11-11 23:00:00 8.4 6 Oeste 11 Oeste 0 -- -- 98
2019-11-11 22:00:00 8.8 6 Oeste 11 Oeste 0 -- -- 97
2019-11-11 21:00:00 8.9 9 Oeste 15 Oeste 0 -- -- 97
2019-11-11 20:00:00 9.1 7 Oeste 9 Oeste 0 -- -- 97
2019-11-11 19:00:00 9.3 7 Noroeste 14 Oeste 0 -- -- 97
2019-11-11 18:00:00 9.4 7 Noroeste 22 Noroeste 0 -- -- 97
2019-11-11 17:00:00 9.7 16 Noroeste 25 Oeste 0 -- -- 94
2019-11-11 16:00:00 9.5 18 Oeste 26 Oeste 0 -- -- 93
2019-11-11 15:00:00 9.4 13 Oeste 23 Oeste 0 -- -- 92
2019-11-11 14:00:00 8.9 14 Oeste 28 Oeste 0 -- -- 91
2019-11-11 13:00:00 8.8 19 Oeste 27 Oeste 0 -- -- 87
2019-11-11 12:00:00 8.4 15 Oeste 25 Oeste 0 -- -- 87
2019-11-11 11:00:00 8.1 13 Oeste 20 Oeste 0 -- -- 90
2019-11-11 10:00:00 7 9 Oeste 15 Oeste 0 -- -- 93
2019-11-11 09:00:00 6.2 7 Oeste 11 Oeste 0 -- -- 95
2019-11-11 08:00:00 5.7 7 Oeste 13 Oeste 0 -- -- 96
2019-11-11 07:00:00 5.4 5 Oeste 8 Oeste 0 -- -- 97
2019-11-11 06:00:00 4.5 0 Calma 5 Oeste 0 -- -- 99
2019-11-11 05:00:00 3.6 3 Oeste 5 Oeste 0 -- -- 98
2019-11-11 04:00:00 3.1 4 Oeste 6 Sur 0 -- -- 95
2019-11-11 03:00:00 3.7 2 Noroeste 4 Noroeste 0 -- -- 94
2019-11-11 02:00:00 4 0 Calma 5 Noroeste 0 -- -- 96
2019-11-11 01:00:00 4.1 0 Calma 7 Noroeste 0 -- -- 94
2019-11-11 00:00:00 4.2 4 Noroeste 12 Oeste 0 -- -- 90
2019-11-10 23:00:00 4.7 6 Noroeste 13 Oeste 0 -- -- 89
2019-11-10 22:00:00 6 9 Noroeste 19 Noroeste 0 -- -- 83
2019-11-10 21:00:00 7.2 14 Noroeste 24 Oeste 0 -- -- 78
2019-11-10 20:00:00 7.7 12 Oeste 29 Oeste 0 -- -- 73
2019-11-10 19:00:00 8.1 16 Oeste 25 Noroeste 0 -- -- 69
2019-11-10 18:00:00 8.8 16 Oeste 30 Noroeste 0 -- -- 62
2019-11-10 17:00:00 9.3 18 Oeste 31 Oeste 0 -- -- 64
2019-11-10 16:00:00 9 17 Oeste 32 Oeste 0 -- -- 66
2019-11-10 15:00:00 8.8 20 Oeste 33 Oeste 0 -- -- 68
2019-11-10 14:00:00 8.4 19 Oeste 32 Oeste 0 -- -- 67
2019-11-10 13:00:00 8.3 17 Oeste 27 Oeste 0 -- -- 69
2019-11-10 12:00:00 7.6 14 Oeste 21 Oeste 0 -- -- 76
2019-11-10 11:00:00 7.3 14 Oeste 21 Noroeste 0 -- -- 79
2019-11-10 10:00:00 6.8 8 Oeste 15 Oeste 0 -- -- 86
2019-11-10 09:00:00 5.8 4 Noroeste 15 Noroeste 0 -- -- 91
2019-11-10 08:00:00 5.8 9 Noroeste 17 Noroeste 0 -- -- 91
2019-11-10 07:00:00 6.8 12 Noroeste 18 Noroeste 0 -- -- 88
2019-11-10 06:00:00 7 10 Noroeste 22 Oeste 0 -- -- 93
2019-11-10 05:00:00 7.8 15 Oeste 28 Oeste 0 -- -- 92
2019-11-10 04:00:00 8.5 18 Oeste 27 Oeste 0 -- -- 90
2019-11-10 03:00:00 9.1 12 Oeste 28 Oeste 0 -- -- 93
2019-11-10 02:00:00 9.4 18 Oeste 37 Oeste 0 -- -- 93
2019-11-10 01:00:00 9.7 27 Oeste 43 Oeste 0 -- -- 93
2019-11-10 00:00:00 9.7 18 Oeste 30 Oeste 0 -- -- 97
2019-11-09 23:00:00 9.4 18 Oeste 29 Oeste 0 -- -- 98
2019-11-09 22:00:00 8.9 14 Sudoeste 23 Oeste 0.2 -- -- 98
2019-11-09 21:00:00 8.5 10 Sudoeste 18 Sudoeste 0 -- -- 96
2019-11-09 20:00:00 8.2 8 Oeste 22 Oeste 0.8 -- -- 92
2019-11-09 19:00:00 9.1 17 Oeste 27 Oeste 0.2 -- -- 79
2019-11-09 18:00:00 10.5 14 Oeste 34 Oeste 0 -- -- 62
2019-11-09 17:00:00 10.8 18 Oeste 34 Oeste 0 -- -- 62
2019-11-09 16:00:00 10.9 21 Sudoeste 34 Oeste 0 -- -- 59
2019-11-09 15:00:00 11.1 19 Oeste 34 Oeste 0 -- -- 59
2019-11-09 14:00:00 11.2 22 Oeste 32 Oeste 0 -- -- 56
2019-11-09 13:00:00 10.2 18 Oeste 26 Oeste 0 -- -- 59
2019-11-09 12:00:00 9.1 13 Oeste 23 Oeste 0 -- -- 62
2019-11-09 11:00:00 7.1 12 Oeste 20 Oeste 0 -- -- 76
2019-11-09 10:00:00 5.6 9 Oeste 14 Oeste 0 -- -- 81
2019-11-09 09:00:00 2.9 4 Oeste 6 Oeste 0 -- -- 94
2019-11-09 08:00:00 0.4 4 Oeste 6 Noroeste 0 -- -- 96
2019-11-09 07:00:00 0.5 0 Calma 5 Noroeste 0 -- -- 96
2019-11-09 06:00:00 0.7 3 Oeste 6 Oeste 0 -- -- 96
2019-11-09 05:00:00 0.8 2 Noroeste 4 Noroeste 0 -- -- 95
2019-11-09 04:00:00 1.1 0 Calma 4 Sudeste 0 -- -- 92
2019-11-09 03:00:00 1.7 0 Calma 8 Noroeste 0 -- -- 90
2019-11-09 02:00:00 2.4 3 Noroeste 8 Oeste 0 -- -- 88
2019-11-09 01:00:00 1.9 4 Oeste 5 Oeste 0 -- -- 92
2019-11-09 00:00:00 2.6 3 Norte 4 Norte 0 -- -- 88
2019-11-08 23:00:00 3.8 0 Calma 8 Noroeste 0 -- -- 84
2019-11-08 22:00:00 4.6 4 Noroeste 9 Oeste 0 -- -- 78
2019-11-08 21:00:00 5.4 4 Oeste 12 Noroeste 0 -- -- 75
2019-11-08 20:00:00 5.6 5 Oeste 12 Oeste 0 -- -- 72
2019-11-08 19:00:00 7.3 6 Oeste 19 Oeste 0 -- -- 64
2019-11-08 18:00:00 9.4 13 Oeste 27 Oeste 0 -- -- 55
2019-11-08 17:00:00 10.4 17 Oeste 31 Oeste 0 -- -- 50
2019-11-08 16:00:00 10.7 19 Oeste 29 Oeste 0 -- -- 49
2019-11-08 15:00:00 10.9 18 Oeste 28 Oeste 0 -- -- 52
2019-11-08 14:00:00 10.3 16 Oeste 28 Oeste 0 -- -- 55
2019-11-08 13:00:00 9.4 17 Oeste 32 Oeste 0 -- -- 62
2019-11-08 12:00:00 8.4 15 Oeste 30 Oeste 0 -- -- 68
2019-11-08 11:00:00 7 18 Oeste 34 Oeste 0 -- -- 74
2019-11-08 10:00:00 5.9 21 Oeste 33 Oeste 0 -- -- 80
2019-11-08 09:00:00 4.8 18 Oeste 28 Oeste 0 -- -- 88
2019-11-08 08:00:00 4.7 17 Oeste 31 Oeste 0 -- -- 87
2019-11-08 07:00:00 5.4 17 Oeste 33 Oeste 0 -- -- 86
2019-11-08 06:00:00 5.6 14 Oeste 28 Oeste 0 -- -- 87
2019-11-08 05:00:00 5 14 Oeste 25 Oeste 0 -- -- 89
2019-11-08 04:00:00 5.2 14 Oeste 21 Oeste 0 -- -- 88
2019-11-08 03:00:00 5.2 11 Oeste 27 Oeste 0 -- -- 85
2019-11-08 02:00:00 5.4 10 Oeste 19 Sudoeste 0 -- -- 82
2019-11-08 01:00:00 5.6 11 Sudoeste 27 Oeste 0 -- -- 81
2019-11-08 00:00:00 6.2 18 Oeste 30 Oeste 0 -- -- 78